createdAt,value
2022-10-19T00:01:16.714Z,23.59
2022-10-19T00:03:46.872Z,23.56
2022-10-19T00:06:20.233Z,23.54
2022-10-19T00:08:48.217Z,23.52
2022-10-19T00:11:16.061Z,23.50
2022-10-19T00:13:44.116Z,23.48
2022-10-19T00:16:14.665Z,23.46
2022-10-19T00:18:43.928Z,23.44
2022-10-19T00:21:18.802Z,23.42
2022-10-19T00:23:49.274Z,23.41
2022-10-19T00:26:17.111Z,23.39
2022-10-19T00:28:45.576Z,23.36
2022-10-19T00:31:17.162Z,23.34
2022-10-19T00:33:46.234Z,23.31
2022-10-19T00:36:18.825Z,23.28
2022-10-19T00:38:47.388Z,23.25
2022-10-19T00:41:17.505Z,23.22
2022-10-19T00:43:59.258Z,23.19
2022-10-19T00:46:29.816Z,23.16
2022-10-19T00:49:04.020Z,23.13
2022-10-19T00:51:39.473Z,23.10
2022-10-19T00:54:09.399Z,23.08
2022-10-19T00:56:41.391Z,23.06
2022-10-19T00:59:10.475Z,23.04
2022-10-19T01:01:38.467Z,23.00
2022-10-19T01:04:06.873Z,22.96
2022-10-19T01:06:36.105Z,22.91
2022-10-19T01:09:04.215Z,22.88
2022-10-19T01:12:07.194Z,22.83
2022-10-19T01:14:47.357Z,22.79
2022-10-19T01:17:33.034Z,22.74
2022-10-19T01:20:28.286Z,22.72
2022-10-19T01:23:14.556Z,22.70
2022-10-19T01:26:01.168Z,22.69
2022-10-19T01:28:29.146Z,22.68
2022-10-19T01:31:14.005Z,22.68
2022-10-19T01:34:10.101Z,22.67
2022-10-19T01:36:44.855Z,22.67
2022-10-19T01:39:38.844Z,22.66
2022-10-19T01:42:19.878Z,22.66
2022-10-19T01:44:55.196Z,22.67
2022-10-19T01:47:27.685Z,22.66
2022-10-19T01:50:25.147Z,22.65
2022-10-19T01:52:55.452Z,22.64
2022-10-19T01:55:26.830Z,22.62
2022-10-19T01:58:00.842Z,22.61
2022-10-19T02:00:31.425Z,22.60
2022-10-19T02:03:02.308Z,22.59
2022-10-19T02:05:33.597Z,22.58
2022-10-19T02:08:06.942Z,22.56
2022-10-19T02:10:38.618Z,22.55
2022-10-19T02:13:08.207Z,22.54
2022-10-19T02:15:41.228Z,22.53
2022-10-19T02:18:12.734Z,22.51
2022-10-19T02:20:41.014Z,22.49
2022-10-19T02:23:09.778Z,22.48
2022-10-19T02:25:37.640Z,22.47
2022-10-19T02:28:07.019Z,22.45
2022-10-19T02:30:36.400Z,22.45
2022-10-19T02:33:04.699Z,22.44
2022-10-19T02:35:33.533Z,22.44
2022-10-19T02:38:04.062Z,22.42
2022-10-19T02:40:36.232Z,22.42
2022-10-19T02:43:09.967Z,22.41
2022-10-19T02:45:46.877Z,22.41
2022-10-19T02:48:21.714Z,22.40
2022-10-19T02:50:49.638Z,22.39
2022-10-19T02:53:18.269Z,22.38
2022-10-19T02:55:49.230Z,22.37
2022-10-19T02:58:17.059Z,22.36
2022-10-19T03:00:45.122Z,22.36
2022-10-19T03:03:13.288Z,22.35
2022-10-19T03:05:41.621Z,22.33
2022-10-19T03:08:09.951Z,22.31
2022-10-19T03:10:38.065Z,22.29
2022-10-19T03:13:05.886Z,22.28
2022-10-19T03:15:33.982Z,22.25
2022-10-19T03:18:01.973Z,22.24
2022-10-19T03:20:30.318Z,22.22
2022-10-19T03:22:58.137Z,22.21
2022-10-19T03:25:26.002Z,22.20
2022-10-19T03:27:53.923Z,22.17
2022-10-19T03:30:21.729Z,22.15
2022-10-19T03:32:49.728Z,22.14
2022-10-19T03:35:17.787Z,22.13
2022-10-19T03:37:45.734Z,22.13
2022-10-19T03:40:13.682Z,22.12
2022-10-19T03:42:41.443Z,22.12
2022-10-19T03:45:09.865Z,22.12
2022-10-19T03:47:37.724Z,22.11
2022-10-19T03:50:06.356Z,22.10
2022-10-19T03:52:34.168Z,22.09
2022-10-19T03:55:02.165Z,22.08
2022-10-19T03:57:29.967Z,22.07
2022-10-19T03:59:57.858Z,22.05
2022-10-19T04:02:26.107Z,22.03
2022-10-19T04:04:53.973Z,22.02
2022-10-19T04:07:21.894Z,21.99
2022-10-19T04:09:50.274Z,21.97
2022-10-19T04:12:18.120Z,21.95
2022-10-19T04:14:56.831Z,21.93
2022-10-19T04:17:25.765Z,21.91
2022-10-19T04:19:53.870Z,21.88
2022-10-19T04:22:21.762Z,21.87
2022-10-19T04:24:49.640Z,21.85
2022-10-19T04:27:17.533Z,21.85
2022-10-19T04:29:45.560Z,21.84
2022-10-19T04:32:13.478Z,21.83
2022-10-19T04:34:41.626Z,21.81
2022-10-19T04:37:09.431Z,21.80
2022-10-19T04:39:37.810Z,21.79
2022-10-19T04:42:05.691Z,21.79
2022-10-19T04:44:33.658Z,21.77
2022-10-19T04:47:01.622Z,21.76
2022-10-19T04:49:29.597Z,21.75
2022-10-19T04:51:57.492Z,21.73
2022-10-19T04:54:25.457Z,21.72
2022-10-19T04:56:53.257Z,21.71
2022-10-19T04:59:21.383Z,21.69
2022-10-19T05:01:49.465Z,21.68
2022-10-19T05:04:17.518Z,21.65
2022-10-19T05:06:45.408Z,21.63
2022-10-19T05:09:13.571Z,21.61
2022-10-19T05:11:41.574Z,21.60
2022-10-19T05:14:09.766Z,21.58
2022-10-19T05:16:37.781Z,21.54
2022-10-19T05:19:05.853Z,21.52
2022-10-19T05:21:33.884Z,21.49
2022-10-19T05:24:02.185Z,21.47
2022-10-19T05:26:30.312Z,21.44
2022-10-19T05:29:00.904Z,21.41
2022-10-19T05:31:31.836Z,21.40
2022-10-19T05:34:01.061Z,21.39
2022-10-19T05:36:31.775Z,21.37
2022-10-19T05:39:03.497Z,21.35
2022-10-19T05:41:31.717Z,21.34
2022-10-19T05:44:01.789Z,21.33
2022-10-19T05:46:31.112Z,21.32
2022-10-19T05:49:00.970Z,21.31
2022-10-19T05:51:29.043Z,21.30
2022-10-19T05:53:57.224Z,21.30
2022-10-19T05:56:28.118Z,21.29
2022-10-19T05:58:58.873Z,21.28
2022-10-19T06:01:28.488Z,21.27
2022-10-19T06:03:59.786Z,21.25
2022-10-19T06:06:28.653Z,21.23
2022-10-19T06:08:57.923Z,21.22
2022-10-19T06:11:35.309Z,21.21
2022-10-19T06:14:06.316Z,21.20
2022-10-19T06:16:35.197Z,21.19
2022-10-19T06:19:05.561Z,21.18
2022-10-19T06:21:34.866Z,21.19
2022-10-19T06:24:05.629Z,21.18
2022-10-19T06:26:34.715Z,21.18
2022-10-19T06:29:04.419Z,21.18
2022-10-19T06:31:35.888Z,21.19
2022-10-19T06:34:05.150Z,21.19
2022-10-19T06:36:33.755Z,21.21
2022-10-19T06:39:02.604Z,21.22
2022-10-19T06:41:31.600Z,21.25
2022-10-19T06:43:59.774Z,21.28
2022-10-19T06:46:28.164Z,21.31
2022-10-19T06:48:58.427Z,21.34
2022-10-19T06:51:28.720Z,21.37
2022-10-19T06:53:57.486Z,21.41
2022-10-19T06:56:26.927Z,21.45
2022-10-19T06:58:55.446Z,21.49
2022-10-19T07:01:24.193Z,21.53
2022-10-19T07:03:53.214Z,21.57
2022-10-19T07:06:22.141Z,21.62
2022-10-19T07:08:50.432Z,21.67
2022-10-19T07:11:20.667Z,21.70
2022-10-19T07:13:48.834Z,21.73
2022-10-19T07:16:21.014Z,21.74
2022-10-19T07:18:54.203Z,21.75
2022-10-19T07:21:23.391Z,21.78
2022-10-19T07:23:51.983Z,21.81
2022-10-19T07:26:26.711Z,21.86
2022-10-19T07:28:58.306Z,21.93
2022-10-19T07:31:29.135Z,22.02
2022-10-19T07:34:02.682Z,22.12
2022-10-19T07:36:33.598Z,22.23
2022-10-19T07:39:02.360Z,22.32
2022-10-19T07:41:30.374Z,22.38
2022-10-19T07:43:58.657Z,22.44
2022-10-19T07:46:28.708Z,22.49
2022-10-19T07:48:56.668Z,22.54
2022-10-19T07:51:26.096Z,22.59
2022-10-19T07:53:54.317Z,22.66
2022-10-19T07:56:24.505Z,22.74
2022-10-19T07:58:54.773Z,22.84
2022-10-19T08:01:26.233Z,22.95
2022-10-19T08:04:43.224Z,23.07
2022-10-19T08:06:44.945Z,23.22
2022-10-19T08:09:27.624Z,23.34
2022-10-19T08:12:01.319Z,23.48
2022-10-19T08:14:29.435Z,23.61
2022-10-19T08:16:57.865Z,23.76
2022-10-19T08:19:25.927Z,23.90
2022-10-19T08:21:54.031Z,24.05
2022-10-19T08:24:25.270Z,24.16
2022-10-19T08:26:53.239Z,24.25
2022-10-19T08:29:21.969Z,24.32
2022-10-19T08:31:50.449Z,24.37
2022-10-19T08:34:18.495Z,24.39
2022-10-19T08:36:47.058Z,24.44
2022-10-19T08:39:15.462Z,24.50
2022-10-19T08:41:59.910Z,24.59
2022-10-19T08:44:52.705Z,24.71
2022-10-19T08:47:43.343Z,24.88
2022-10-19T08:50:24.687Z,25.03
2022-10-19T08:53:03.982Z,25.16
2022-10-19T08:56:12.484Z,25.25
2022-10-19T08:58:46.091Z,25.36
2022-10-19T09:01:29.025Z,25.42
2022-10-19T09:04:10.546Z,25.45
2022-10-19T09:06:59.347Z,25.46
2022-10-19T09:09:30.535Z,25.48
2022-10-19T09:12:05.863Z,25.50
2022-10-19T09:14:58.397Z,25.52
2022-10-19T09:17:27.043Z,25.57
2022-10-19T09:19:55.171Z,25.64
2022-10-19T09:22:36.243Z,25.70
2022-10-19T09:25:11.096Z,25.79
2022-10-19T09:27:40.825Z,25.90
2022-10-19T09:30:17.505Z,26.03
2022-10-19T09:32:46.714Z,26.17
2022-10-19T09:35:14.636Z,26.31
2022-10-19T09:37:46.819Z,26.45
2022-10-19T09:40:19.057Z,26.62
2022-10-19T09:42:47.716Z,26.77
2022-10-19T09:45:54.953Z,26.91
2022-10-19T09:48:25.911Z,27.06
2022-10-19T09:51:00.279Z,27.18
2022-10-19T09:53:29.713Z,27.32
2022-10-19T09:55:59.506Z,27.45
2022-10-19T09:58:32.911Z,27.56
2022-10-19T10:01:03.390Z,27.67
2022-10-19T10:03:37.886Z,27.80
2022-10-19T10:06:14.028Z,27.89
2022-10-19T10:08:55.296Z,27.90
2022-10-19T10:11:24.739Z,27.90
2022-10-19T10:13:55.760Z,27.91
2022-10-19T10:16:28.583Z,27.97
2022-10-19T10:19:08.026Z,28.02
2022-10-19T10:21:51.290Z,28.03
2022-10-19T10:24:22.113Z,28.02
2022-10-19T10:27:02.592Z,27.96
2022-10-19T10:29:33.450Z,27.83
2022-10-19T10:32:20.091Z,27.73
2022-10-19T10:35:04.632Z,27.67
2022-10-19T10:37:40.687Z,27.57
2022-10-19T10:40:24.762Z,27.47
2022-10-19T10:42:55.064Z,27.37
2022-10-19T10:45:30.136Z,27.35
2022-10-19T10:50:36.869Z,27.48
2022-10-19T10:53:26.241Z,27.58
2022-10-19T10:55:57.955Z,27.72
2022-10-19T10:58:47.366Z,27.84
2022-10-19T11:01:22.836Z,27.88
2022-10-19T11:04:22.933Z,27.93
2022-10-19T11:06:59.473Z,28.04
2022-10-19T11:09:46.592Z,28.17
2022-10-19T11:12:18.781Z,28.35
2022-10-19T11:15:01.641Z,28.51
2022-10-19T11:17:34.087Z,28.65
2022-10-19T11:20:02.328Z,28.80
2022-10-19T11:22:58.781Z,28.92
2022-10-19T11:25:35.823Z,29.04
2022-10-19T11:28:38.724Z,29.11
2022-10-19T11:31:18.796Z,29.24
2022-10-19T11:33:55.026Z,29.38
2022-10-19T11:37:02.852Z,29.56
2022-10-19T11:39:59.261Z,29.93
2022-10-19T11:42:40.630Z,30.12
2022-10-19T11:45:42.731Z,30.14
2022-10-19T11:48:19.615Z,30.09
2022-10-19T11:50:54.035Z,29.97
2022-10-19T11:53:35.610Z,29.86
2022-10-19T11:56:44.778Z,29.81
2022-10-19T11:59:37.940Z,29.76
2022-10-19T12:02:12.689Z,29.79
2022-10-19T12:05:13.221Z,29.82
2022-10-19T12:07:44.269Z,29.87
2022-10-19T12:10:32.560Z,29.95
2022-10-19T12:13:09.571Z,30.03
2022-10-19T12:15:46.730Z,30.12
2022-10-19T12:18:27.369Z,30.20
2022-10-19T12:20:59.475Z,30.30
2022-10-19T12:23:34.421Z,30.35
2022-10-19T12:26:06.441Z,30.33
2022-10-19T12:28:39.399Z,30.28
2022-10-19T12:31:09.625Z,30.26
2022-10-19T12:33:57.665Z,30.27
2022-10-19T12:36:35.985Z,30.31
2022-10-19T12:39:23.636Z,30.30
2022-10-19T12:42:15.728Z,30.32
2022-10-19T12:45:13.564Z,30.36
2022-10-19T12:48:10.078Z,30.39
2022-10-19T12:50:50.359Z,30.41
2022-10-19T12:53:28.125Z,30.42
2022-10-19T12:56:07.531Z,30.43
2022-10-19T12:58:47.711Z,30.40
2022-10-19T13:01:19.801Z,30.37
2022-10-19T13:03:51.381Z,30.35
2022-10-19T13:06:33.344Z,30.29
2022-10-19T13:09:07.889Z,30.18
2022-10-19T13:11:36.760Z,30.09
2022-10-19T13:14:20.246Z,30.02
2022-10-19T13:16:57.967Z,29.97
2022-10-19T13:19:26.797Z,29.99
2022-10-19T13:22:03.195Z,30.00
2022-10-19T13:24:36.694Z,29.95
2022-10-19T13:27:04.884Z,29.90
2022-10-19T13:29:39.240Z,29.90
2022-10-19T13:32:45.403Z,29.93
2022-10-19T13:35:23.873Z,29.92
2022-10-19T13:38:10.021Z,29.85
2022-10-19T13:40:56.118Z,29.78
2022-10-19T13:43:30.397Z,29.75
2022-10-19T13:46:22.492Z,29.72
2022-10-19T13:49:08.826Z,29.72
2022-10-19T13:52:03.280Z,29.71
2022-10-19T13:54:53.172Z,29.71
2022-10-19T13:58:00.617Z,29.74
2022-10-19T14:00:54.580Z,29.80
2022-10-19T14:03:45.356Z,29.78
2022-10-19T14:06:33.232Z,29.70
2022-10-19T14:09:28.906Z,29.65
2022-10-19T14:12:28.159Z,29.60
2022-10-19T14:14:56.211Z,29.60
2022-10-19T14:17:26.810Z,29.59
2022-10-19T14:19:58.029Z,29.57
2022-10-19T14:22:36.346Z,29.59
2022-10-19T14:25:20.964Z,29.55
2022-10-19T14:27:56.872Z,29.52
2022-10-19T14:30:28.605Z,29.51
2022-10-19T14:33:00.995Z,29.48
2022-10-19T14:35:42.696Z,29.43
2022-10-19T14:38:22.065Z,29.43
2022-10-19T14:40:50.205Z,29.43
2022-10-19T14:43:30.986Z,29.42
2022-10-19T14:46:08.090Z,29.37
2022-10-19T14:48:42.063Z,29.34
2022-10-19T14:51:30.784Z,29.33
2022-10-19T14:54:11.247Z,29.32
2022-10-19T14:57:04.097Z,29.29
2022-10-19T14:59:36.991Z,29.21
2022-10-19T15:02:23.001Z,29.15
2022-10-19T15:04:52.878Z,29.10
2022-10-19T15:07:26.280Z,29.09
2022-10-19T15:10:01.404Z,29.03
2022-10-19T15:12:42.130Z,28.99
2022-10-19T15:15:15.919Z,28.94
2022-10-19T15:17:53.876Z,28.91
2022-10-19T15:20:29.447Z,28.88
2022-10-19T15:22:58.713Z,28.87
2022-10-19T15:25:34.537Z,28.83
2022-10-19T15:28:31.944Z,28.78
2022-10-19T15:31:23.137Z,28.70
2022-10-19T15:33:57.789Z,28.60
2022-10-19T15:36:27.477Z,28.51
2022-10-19T15:39:06.415Z,28.43
2022-10-19T15:41:46.520Z,28.33
2022-10-19T15:44:42.783Z,28.25
2022-10-19T15:47:13.383Z,28.14
2022-10-19T15:49:41.265Z,28.02
2022-10-19T15:52:24.401Z,27.90
2022-10-19T15:54:55.060Z,27.79
2022-10-19T15:57:35.742Z,27.69
2022-10-19T16:00:14.343Z,27.60
2022-10-19T16:02:42.498Z,27.52
2022-10-19T16:05:10.765Z,27.44
2022-10-19T16:07:40.978Z,27.38
2022-10-19T16:10:16.369Z,27.32
2022-10-19T16:12:44.563Z,27.28
2022-10-19T16:15:18.535Z,27.21
2022-10-19T16:17:48.905Z,27.16
2022-10-19T16:20:17.765Z,27.09
2022-10-19T16:22:47.129Z,27.04
2022-10-19T16:25:15.368Z,26.99
2022-10-19T16:27:43.537Z,26.93
2022-10-19T16:30:13.140Z,26.89
2022-10-19T16:35:12.648Z,26.80
2022-10-19T16:37:40.904Z,26.75
2022-10-19T16:40:09.501Z,26.71
2022-10-19T16:42:37.873Z,26.67
2022-10-19T16:45:06.765Z,26.63
2022-10-19T16:47:34.770Z,26.59
2022-10-19T16:50:05.323Z,26.56
2022-10-19T16:52:34.026Z,26.53
2022-10-19T16:55:03.220Z,26.50
2022-10-19T16:57:31.292Z,26.46
2022-10-19T16:59:59.633Z,26.41
2022-10-19T17:02:27.627Z,26.36
2022-10-19T17:04:56.280Z,26.32
2022-10-19T17:07:24.667Z,26.28
2022-10-19T17:09:56.752Z,26.23
2022-10-19T17:12:25.030Z,26.20
2022-10-19T17:14:53.006Z,26.16
2022-10-19T17:17:20.927Z,26.13
2022-10-19T17:19:49.098Z,26.07
2022-10-19T17:22:17.079Z,26.01
2022-10-19T17:24:45.139Z,25.95
2022-10-19T17:27:13.310Z,25.89
2022-10-19T17:29:41.392Z,25.86
2022-10-19T17:32:09.517Z,25.82
2022-10-19T17:34:37.528Z,25.78
2022-10-19T17:37:05.930Z,25.75
2022-10-19T17:39:33.898Z,25.72
2022-10-19T17:42:02.343Z,25.68
2022-10-19T17:44:31.114Z,25.65
2022-10-19T17:47:00.507Z,25.61
2022-10-19T17:49:29.116Z,25.58
2022-10-19T17:51:57.668Z,25.55
2022-10-19T17:54:25.955Z,25.51
2022-10-19T17:56:54.284Z,25.49
2022-10-19T17:59:30.122Z,25.47
2022-10-19T18:02:04.871Z,25.44
2022-10-19T18:04:32.966Z,25.42
2022-10-19T18:07:01.181Z,25.40
2022-10-19T18:09:29.317Z,25.40
2022-10-19T18:11:57.275Z,25.39
2022-10-19T18:14:25.258Z,25.37
2022-10-19T18:16:53.570Z,25.37
2022-10-19T18:19:21.538Z,25.37
2022-10-19T18:21:49.474Z,25.36
2022-10-19T18:24:18.423Z,25.36
2022-10-19T18:26:48.222Z,25.35
2022-10-19T18:29:20.267Z,25.35
2022-10-19T18:31:49.598Z,25.34
2022-10-19T18:34:19.911Z,25.31
2022-10-19T18:36:47.893Z,25.30
2022-10-19T18:39:16.518Z,25.28
2022-10-19T18:41:44.705Z,25.27
2022-10-19T18:44:13.671Z,25.26
2022-10-19T18:46:41.710Z,25.25
2022-10-19T18:49:12.567Z,25.24
2022-10-19T18:51:40.606Z,25.22
2022-10-19T18:54:08.791Z,25.20
2022-10-19T18:56:36.855Z,25.20
2022-10-19T18:59:05.478Z,25.17
2022-10-19T19:01:33.904Z,25.16
2022-10-19T19:04:09.218Z,25.16
2022-10-19T19:06:38.427Z,25.16
2022-10-19T19:09:09.790Z,25.15
2022-10-19T19:11:39.311Z,25.15
2022-10-19T19:14:13.523Z,25.14
2022-10-19T19:16:43.451Z,25.15
2022-10-19T19:19:13.732Z,25.14
2022-10-19T19:21:42.197Z,25.14
2022-10-19T19:24:13.693Z,25.13
2022-10-19T19:26:46.020Z,25.14
2022-10-19T19:29:14.507Z,25.14
2022-10-19T19:31:42.924Z,25.15
2022-10-19T19:34:11.075Z,25.15
2022-10-19T19:39:09.697Z,25.15
2022-10-19T19:41:37.959Z,25.15
2022-10-19T19:44:06.171Z,25.15
2022-10-19T19:46:34.596Z,25.16
2022-10-19T19:49:04.415Z,25.16
2022-10-19T19:51:33.556Z,25.16
2022-10-19T19:54:01.554Z,25.16
2022-10-19T19:56:29.497Z,25.16
2022-10-19T19:58:59.642Z,25.16
2022-10-19T20:01:27.683Z,25.14
2022-10-19T20:03:58.640Z,25.15
2022-10-19T20:06:27.391Z,25.14
2022-10-19T20:08:55.973Z,25.14
2022-10-19T20:11:25.790Z,25.15
2022-10-19T20:13:53.904Z,25.14
2022-10-19T20:16:26.726Z,25.15
2022-10-19T20:19:03.925Z,25.15
2022-10-19T20:21:31.900Z,25.15
2022-10-19T20:24:00.454Z,25.15
2022-10-19T20:26:29.519Z,25.14
2022-10-19T20:28:57.871Z,25.13
2022-10-19T20:31:26.197Z,25.13
2022-10-19T20:33:54.243Z,25.13
2022-10-19T20:36:26.161Z,25.11
2022-10-19T20:38:56.834Z,25.10
2022-10-19T20:41:26.702Z,25.09
2022-10-19T20:43:55.399Z,25.10
2022-10-19T20:46:26.219Z,25.09
2022-10-19T20:48:56.524Z,25.08
2022-10-19T20:51:31.613Z,25.08
2022-10-19T20:54:02.922Z,25.08
2022-10-19T20:56:35.332Z,25.08
2022-10-19T20:59:09.400Z,25.07
2022-10-19T21:01:39.860Z,25.07
2022-10-19T21:04:10.210Z,25.06
2022-10-19T21:06:41.666Z,25.05
2022-10-19T21:09:11.495Z,25.03
2022-10-19T21:11:41.968Z,25.03
2022-10-19T21:14:29.920Z,25.02
2022-10-19T21:16:59.666Z,25.02
2022-10-19T21:19:29.049Z,25.01
2022-10-19T21:22:02.102Z,25.00
2022-10-19T21:24:33.900Z,24.99
2022-10-19T21:27:05.113Z,24.97
2022-10-19T21:29:34.090Z,24.96
2022-10-19T21:32:02.472Z,24.96
2022-10-19T21:34:31.865Z,24.94
2022-10-19T21:37:00.312Z,24.94
2022-10-19T21:39:28.667Z,24.93
2022-10-19T21:41:56.907Z,24.92
2022-10-19T21:44:24.916Z,24.90
2022-10-19T21:46:53.064Z,24.88
2022-10-19T21:49:21.478Z,24.87
2022-10-19T21:51:52.397Z,24.87
2022-10-19T21:54:23.685Z,24.85
2022-10-19T21:56:51.828Z,24.82
2022-10-19T21:59:19.926Z,24.78
2022-10-19T22:01:48.405Z,24.74
2022-10-19T22:04:17.956Z,24.72
2022-10-19T22:06:46.343Z,24.71
2022-10-19T22:09:18.899Z,24.70
2022-10-19T22:11:47.241Z,24.71
2022-10-19T22:14:16.676Z,24.70
2022-10-19T22:16:45.133Z,24.69
2022-10-19T22:19:14.204Z,24.69
2022-10-19T22:21:42.213Z,24.70
2022-10-19T22:24:15.397Z,24.71
2022-10-19T22:26:48.657Z,24.72
2022-10-19T22:29:16.806Z,24.74
2022-10-19T22:31:44.870Z,24.74
2022-10-19T22:34:15.274Z,24.75
2022-10-19T22:36:44.206Z,24.74
2022-10-19T22:39:13.400Z,24.74
2022-10-19T22:42:19.478Z,24.73
2022-10-19T22:45:25.252Z,24.73
2022-10-19T22:48:31.191Z,24.72
2022-10-19T22:51:37.160Z,24.71
2022-10-19T22:54:06.200Z,24.69
2022-10-19T22:56:34.459Z,24.68
2022-10-19T22:59:05.005Z,24.67
2022-10-19T23:01:33.610Z,24.65
2022-10-19T23:04:01.739Z,24.64
2022-10-19T23:06:30.215Z,24.62
2022-10-19T23:08:58.650Z,24.60
2022-10-19T23:11:26.659Z,24.58
2022-10-19T23:13:54.667Z,24.55
2022-10-19T23:16:22.968Z,24.53
2022-10-19T23:18:51.309Z,24.50
2022-10-19T23:21:19.388Z,24.48
2022-10-19T23:23:47.455Z,24.44
2022-10-19T23:26:18.629Z,24.42
2022-10-19T23:28:49.471Z,24.38
2022-10-19T23:31:23.068Z,24.35
2022-10-19T23:33:53.144Z,24.33
2022-10-19T23:36:23.861Z,24.29
2022-10-19T23:38:53.031Z,24.27
2022-10-19T23:41:22.492Z,24.24
2022-10-19T23:43:50.569Z,24.22
2022-10-19T23:46:18.949Z,24.19
2022-10-19T23:48:47.163Z,24.17
2022-10-19T23:51:18.023Z,24.15
2022-10-19T23:53:47.916Z,24.13
2022-10-19T23:56:27.693Z,24.11
2022-10-19T23:58:56.936Z,24.09
